createdAt,value
2023-03-01T00:01:08.256Z,9.80
2023-03-01T00:03:35.864Z,12.45
2023-03-01T00:06:04.065Z,12.38
2023-03-01T00:08:33.847Z,13.68
2023-03-01T00:11:06.187Z,10.18
2023-03-01T00:13:33.138Z,13.05
2023-03-01T00:15:59.693Z,13.43
2023-03-01T00:18:26.235Z,12.85
2023-03-01T00:20:54.545Z,13.95
2023-03-01T00:23:21.855Z,12.38
2023-03-01T00:25:49.057Z,13.35
2023-03-01T00:28:15.629Z,12.18
2023-03-01T00:30:42.326Z,13.63
2023-03-01T00:33:09.450Z,13.20
2023-03-01T00:35:36.052Z,11.25
2023-03-01T00:38:04.540Z,12.25
2023-03-01T00:40:33.800Z,11.93
2023-03-01T00:43:00.496Z,14.10
2023-03-01T00:45:28.095Z,13.10
2023-03-01T00:47:54.807Z,13.80
2023-03-01T00:50:21.535Z,13.40
2023-03-01T00:52:48.067Z,12.15
2023-03-01T00:55:14.567Z,13.45
2023-03-01T00:57:41.150Z,14.57
2023-03-01T01:00:08.844Z,13.90
2023-03-01T01:02:35.736Z,13.90
2023-03-01T01:05:02.271Z,13.90
2023-03-01T01:07:28.791Z,14.07
2023-03-01T01:09:55.330Z,13.95
2023-03-01T01:12:21.922Z,13.05
2023-03-01T01:14:48.483Z,12.98
2023-03-01T01:17:14.977Z,14.68
2023-03-01T01:19:41.494Z,13.52
2023-03-01T01:22:08.244Z,12.82
2023-03-01T01:24:34.719Z,14.07
2023-03-01T01:27:01.186Z,12.98
2023-03-01T01:29:27.765Z,13.73
2023-03-01T01:31:54.276Z,13.60
2023-03-01T01:34:22.615Z,13.85
2023-03-01T01:36:51.218Z,13.80
2023-03-01T01:39:17.946Z,13.05
2023-03-01T01:41:44.527Z,14.57
2023-03-01T01:44:15.997Z,13.73
2023-03-01T01:46:56.597Z,15.23
2023-03-01T01:49:25.632Z,14.13
2023-03-01T01:51:58.997Z,14.25
2023-03-01T01:54:39.148Z,13.88
2023-03-01T01:59:35.581Z,14.57
2023-03-01T02:02:04.441Z,14.65
2023-03-01T02:04:33.147Z,13.63
2023-03-01T02:07:07.603Z,13.13
2023-03-01T02:09:36.500Z,15.40
2023-03-01T02:12:05.260Z,13.20
2023-03-01T02:14:31.847Z,13.20
2023-03-01T02:16:58.438Z,13.30
2023-03-01T02:19:47.262Z,13.65
2023-03-01T02:22:31.412Z,14.30
2023-03-01T02:25:19.773Z,14.57
2023-03-01T02:28:01.385Z,14.30
2023-03-01T02:30:28.711Z,13.20
2023-03-01T02:33:03.697Z,14.55
2023-03-01T02:35:35.621Z,14.32
2023-03-01T02:38:03.864Z,13.20
2023-03-01T02:40:34.226Z,15.18
2023-03-01T02:43:00.843Z,14.40
2023-03-01T02:45:28.274Z,14.60
2023-03-01T02:47:56.240Z,14.02
2023-03-01T02:50:25.444Z,13.05
2023-03-01T02:53:02.443Z,14.17
2023-03-01T02:55:29.121Z,13.98
2023-03-01T02:57:57.312Z,14.73
2023-03-01T03:00:36.719Z,14.27
2023-03-01T03:03:03.352Z,12.70
2023-03-01T03:05:32.127Z,15.00
2023-03-01T03:08:01.220Z,14.75
2023-03-01T03:10:30.513Z,14.23
2023-03-01T03:13:02.985Z,14.20
2023-03-01T03:15:30.582Z,15.30
2023-03-01T03:17:59.362Z,15.50
2023-03-01T03:20:28.039Z,15.45
2023-03-01T03:22:56.628Z,13.30
2023-03-01T03:25:24.188Z,12.98
2023-03-01T03:27:57.594Z,14.32
2023-03-01T03:30:30.247Z,13.88
2023-03-01T03:32:58.191Z,15.55
2023-03-01T03:35:26.953Z,14.77
2023-03-01T03:38:02.966Z,15.13
2023-03-01T03:40:37.859Z,16.02
2023-03-01T03:43:05.779Z,14.93
2023-03-01T03:45:34.460Z,14.98
2023-03-01T03:48:02.064Z,15.45
2023-03-01T03:50:28.779Z,16.10
2023-03-01T03:52:55.362Z,16.25
2023-03-01T03:55:21.991Z,15.90
2023-03-01T03:57:55.493Z,16.27
2023-03-01T04:00:24.889Z,15.27
2023-03-01T04:02:52.117Z,16.13
2023-03-01T04:05:19.783Z,15.32
2023-03-01T04:07:46.701Z,14.30
2023-03-01T04:10:16.363Z,14.65
2023-03-01T04:12:45.966Z,15.45
2023-03-01T04:15:15.788Z,15.73
2023-03-01T04:17:46.173Z,16.40
2023-03-01T04:20:18.291Z,17.67
2023-03-01T04:22:47.961Z,15.38
2023-03-01T04:25:15.599Z,14.25
2023-03-01T04:27:42.270Z,16.35
2023-03-01T04:30:09.868Z,16.40
2023-03-01T04:32:36.440Z,14.32
2023-03-01T04:35:03.036Z,16.83
2023-03-01T04:37:30.687Z,15.25
2023-03-01T04:39:57.201Z,15.82
2023-03-01T04:42:24.077Z,16.63
2023-03-01T04:44:52.262Z,16.27
2023-03-01T04:47:18.818Z,15.18
2023-03-01T04:49:45.813Z,16.60
2023-03-01T04:52:12.441Z,16.35
2023-03-01T04:54:38.929Z,18.63
2023-03-01T04:57:05.469Z,17.70
2023-03-01T04:59:31.967Z,17.30
2023-03-01T05:01:58.593Z,16.50
2023-03-01T05:04:26.342Z,16.10
2023-03-01T05:06:54.568Z,15.95
2023-03-01T05:09:21.191Z,15.27
2023-03-01T05:11:47.855Z,15.07
2023-03-01T05:14:14.447Z,16.40
2023-03-01T05:16:40.951Z,16.90
2023-03-01T05:19:12.416Z,17.88
2023-03-01T05:21:59.869Z,16.60
2023-03-01T05:24:26.852Z,16.63
2023-03-01T05:26:54.000Z,15.15
2023-03-01T05:29:25.907Z,17.60
2023-03-01T05:31:57.291Z,16.30
2023-03-01T05:34:28.788Z,16.30
2023-03-01T05:36:55.550Z,16.67
2023-03-01T05:39:24.206Z,15.43
2023-03-01T05:41:55.726Z,15.52
2023-03-01T05:44:22.596Z,15.13
2023-03-01T05:46:49.427Z,16.17
2023-03-01T05:49:17.045Z,15.02
2023-03-01T05:51:44.781Z,14.85
2023-03-01T05:54:11.288Z,15.75
2023-03-01T05:56:38.029Z,17.10
2023-03-01T05:59:08.764Z,17.38
2023-03-01T06:01:36.246Z,16.13
2023-03-01T06:04:04.501Z,15.95
2023-03-01T06:06:35.508Z,17.48
2023-03-01T06:09:02.031Z,18.00
2023-03-01T06:11:28.596Z,16.75
2023-03-01T06:13:55.111Z,20.15
2023-03-01T06:16:21.698Z,19.92
2023-03-01T06:18:48.239Z,18.50
2023-03-01T06:21:14.846Z,19.05
2023-03-01T06:23:41.333Z,15.95
2023-03-01T06:26:09.074Z,16.95
2023-03-01T06:28:36.854Z,17.00
2023-03-01T06:31:03.829Z,15.75
2023-03-01T06:33:30.364Z,16.17
2023-03-01T06:35:57.628Z,16.88
2023-03-01T06:38:25.284Z,18.08
2023-03-01T06:40:57.390Z,16.50
2023-03-01T06:43:24.759Z,18.88
2023-03-01T06:45:51.712Z,16.25
2023-03-01T06:48:18.526Z,15.93
2023-03-01T06:50:45.196Z,17.52
2023-03-01T06:53:11.813Z,16.25
2023-03-01T06:55:38.412Z,16.55
2023-03-01T06:58:05.202Z,15.48
2023-03-01T07:00:31.799Z,16.08
2023-03-01T07:03:03.476Z,14.55
2023-03-01T07:05:31.272Z,14.32
2023-03-01T07:07:57.823Z,13.13
2023-03-01T07:10:24.694Z,15.35
2023-03-01T07:12:51.178Z,12.35
2023-03-01T07:15:17.751Z,12.23
2023-03-01T07:17:45.583Z,13.77
2023-03-01T07:20:12.749Z,10.82
2023-03-01T07:22:42.861Z,11.15
2023-03-01T07:27:37.567Z,15.10
2023-03-01T07:30:04.885Z,12.02
2023-03-01T07:32:31.557Z,12.25
2023-03-01T07:34:58.130Z,12.25
2023-03-01T07:37:24.656Z,11.70
2023-03-01T07:39:51.185Z,11.90
2023-03-01T07:42:17.710Z,11.30
2023-03-01T07:44:44.209Z,12.02
2023-03-01T07:47:10.698Z,12.35
2023-03-01T07:49:37.182Z,11.10
2023-03-01T07:52:03.806Z,11.85
2023-03-01T07:54:30.410Z,11.60
2023-03-01T07:56:57.911Z,11.40
2023-03-01T07:59:29.865Z,12.43
2023-03-01T08:01:59.665Z,12.23
2023-03-01T08:04:27.663Z,14.60
2023-03-01T08:06:55.617Z,11.32
2023-03-01T08:09:22.730Z,12.00
2023-03-01T08:11:49.406Z,11.32
2023-03-01T08:14:15.962Z,12.25
2023-03-01T08:16:42.541Z,11.07
2023-03-01T08:19:11.777Z,12.20
2023-03-01T08:21:38.920Z,12.37
2023-03-01T08:24:06.941Z,10.77
2023-03-01T08:26:33.892Z,10.77
2023-03-01T08:29:01.289Z,12.25
2023-03-01T08:31:32.005Z,11.07
2023-03-01T08:34:01.228Z,11.73
2023-03-01T08:36:30.810Z,11.50
2023-03-01T08:38:57.754Z,11.98
2023-03-01T08:41:24.981Z,11.80
2023-03-01T08:43:52.186Z,12.40
2023-03-01T08:46:18.796Z,12.43
2023-03-01T08:48:45.568Z,13.18
2023-03-01T08:51:18.072Z,12.10
2023-03-01T08:53:45.137Z,12.27
2023-03-01T08:56:12.251Z,12.48
2023-03-01T08:58:40.927Z,12.18
2023-03-01T09:01:11.814Z,12.35
2023-03-01T09:03:38.655Z,12.05
2023-03-01T09:06:06.521Z,11.57
2023-03-01T09:08:36.505Z,12.77
2023-03-01T09:11:04.712Z,13.23
2023-03-01T09:13:34.641Z,12.98
2023-03-01T09:16:07.137Z,12.88
2023-03-01T09:18:34.921Z,12.23
2023-03-01T09:21:10.047Z,12.10
2023-03-01T09:23:42.339Z,14.13
2023-03-01T09:26:35.096Z,14.32
2023-03-01T09:29:01.675Z,13.07
2023-03-01T09:31:28.133Z,13.25
2023-03-01T09:33:55.714Z,13.98
2023-03-01T09:36:24.746Z,12.75
2023-03-01T09:38:53.849Z,12.80
2023-03-01T09:41:44.760Z,13.32
2023-03-01T09:44:32.699Z,14.43
2023-03-01T09:47:00.483Z,13.30
2023-03-01T09:49:36.246Z,12.90
2023-03-01T09:52:27.575Z,12.55
2023-03-01T09:54:58.228Z,12.93
2023-03-01T09:57:48.967Z,13.82
2023-03-01T10:00:44.161Z,11.85
2023-03-01T10:03:33.711Z,12.60
2023-03-01T10:06:05.550Z,12.02
2023-03-01T10:08:52.043Z,12.43
2023-03-01T10:11:25.101Z,12.25
2023-03-01T10:14:00.175Z,12.38
2023-03-01T10:16:48.795Z,11.32
2023-03-01T10:19:23.158Z,11.88
2023-03-01T10:21:51.871Z,11.73
2023-03-01T10:24:22.482Z,12.98
2023-03-01T10:27:01.780Z,11.75
2023-03-01T10:29:36.109Z,12.65
2023-03-01T10:32:07.605Z,12.52
2023-03-01T10:34:36.401Z,11.40
2023-03-01T10:37:15.159Z,12.25
2023-03-01T10:39:57.626Z,11.70
2023-03-01T10:42:33.255Z,11.48
2023-03-01T10:45:25.937Z,13.63
2023-03-01T10:48:25.398Z,11.13
2023-03-01T10:51:07.097Z,11.07
2023-03-01T10:53:41.754Z,11.32
2023-03-01T10:56:16.538Z,12.02
2023-03-01T10:58:59.734Z,11.95
2023-03-01T11:01:36.215Z,11.75
2023-03-01T11:04:08.619Z,11.35
2023-03-01T11:06:36.745Z,11.50
2023-03-01T11:09:28.306Z,12.32
2023-03-01T11:12:01.678Z,12.15
2023-03-01T11:14:38.870Z,11.85
2023-03-01T11:17:14.731Z,11.90
2023-03-01T11:19:42.532Z,11.02
2023-03-01T11:22:14.433Z,10.70
2023-03-01T11:25:08.754Z,11.30
2023-03-01T11:27:41.869Z,10.20
2023-03-01T11:30:21.427Z,12.10
2023-03-01T11:35:43.196Z,11.35
2023-03-01T11:38:31.835Z,12.32
2023-03-01T11:41:01.329Z,12.25
2023-03-01T11:44:06.696Z,10.88
2023-03-01T11:46:33.300Z,10.50
2023-03-01T11:49:07.228Z,10.45
2023-03-01T11:52:01.774Z,10.90
2023-03-01T11:54:52.168Z,9.93
2023-03-01T11:57:42.891Z,10.50
2023-03-01T12:00:49.169Z,10.23
2023-03-01T12:03:19.065Z,10.35
2023-03-01T12:06:04.630Z,10.45
2023-03-01T12:08:59.380Z,9.77
2023-03-01T12:11:38.256Z,9.02
2023-03-01T12:14:23.490Z,10.57
2023-03-01T12:17:07.628Z,9.63
2023-03-01T12:20:15.239Z,10.38
2023-03-01T12:23:11.260Z,10.05
2023-03-01T12:26:03.567Z,9.18
2023-03-01T12:28:47.141Z,10.35
2023-03-01T12:31:35.716Z,10.10
2023-03-01T12:34:21.157Z,8.93
2023-03-01T12:37:12.690Z,8.18
2023-03-01T12:40:17.397Z,8.82
2023-03-01T12:42:58.524Z,8.80
2023-03-01T12:45:52.023Z,8.82
2023-03-01T12:48:46.383Z,8.02
2023-03-01T12:51:16.808Z,8.25
2023-03-01T12:53:48.815Z,8.77
2023-03-01T12:56:24.907Z,9.13
2023-03-01T12:59:16.396Z,9.23
2023-03-01T13:02:03.420Z,8.57
2023-03-01T13:04:55.606Z,8.60
2023-03-01T13:07:41.875Z,9.02
2023-03-01T13:10:17.808Z,10.00
2023-03-01T13:12:54.065Z,8.23
2023-03-01T13:15:23.574Z,8.43
2023-03-01T13:18:16.348Z,7.70
2023-03-01T13:20:42.995Z,8.82
2023-03-01T13:23:14.655Z,8.77
2023-03-01T13:25:59.833Z,7.32
2023-03-01T13:28:35.760Z,9.00
2023-03-01T13:31:07.726Z,7.22
2023-03-01T13:33:42.029Z,7.88
2023-03-01T13:36:12.036Z,7.78
2023-03-01T13:38:38.530Z,7.00
2023-03-01T13:41:05.857Z,7.43
2023-03-01T13:43:41.515Z,7.13
2023-03-01T13:46:25.070Z,7.70
2023-03-01T13:48:57.724Z,7.72
2023-03-01T13:51:27.190Z,6.85
2023-03-01T13:53:56.078Z,6.93
2023-03-01T13:56:28.761Z,6.60
2023-03-01T13:59:06.931Z,7.18
2023-03-01T14:01:36.218Z,7.65
2023-03-01T14:04:18.447Z,6.47
2023-03-01T14:06:44.988Z,7.60
2023-03-01T14:09:26.046Z,7.13
2023-03-01T14:12:11.294Z,7.07
2023-03-01T14:14:59.618Z,6.97
2023-03-01T14:17:51.011Z,6.60
2023-03-01T14:20:21.371Z,6.78
2023-03-01T14:22:49.584Z,7.45
2023-03-01T14:25:28.082Z,6.97
2023-03-01T14:28:02.527Z,7.57
2023-03-01T14:30:43.184Z,7.13
2023-03-01T14:33:23.922Z,7.18
2023-03-01T14:36:02.921Z,8.35
2023-03-01T14:38:35.858Z,8.18
2023-03-01T14:41:16.222Z,8.70
2023-03-01T14:43:47.903Z,8.18
2023-03-01T14:46:38.608Z,7.97
2023-03-01T14:49:12.408Z,7.05
2023-03-01T14:51:40.542Z,10.75
2023-03-01T14:54:21.803Z,6.70
2023-03-01T14:56:48.850Z,7.32
2023-03-01T14:59:15.343Z,8.20
2023-03-01T15:01:44.166Z,7.22
2023-03-01T15:04:14.559Z,8.15
2023-03-01T15:06:42.286Z,7.65
2023-03-01T15:09:15.789Z,7.93
2023-03-01T15:11:44.630Z,7.32
2023-03-01T15:14:42.980Z,7.63
2023-03-01T15:17:40.148Z,9.07
2023-03-01T15:20:26.570Z,7.85
2023-03-01T15:22:54.580Z,7.82
2023-03-01T15:25:27.027Z,8.00
2023-03-01T15:27:55.149Z,7.70
2023-03-01T15:30:38.242Z,6.10
2023-03-01T15:33:29.283Z,8.40
2023-03-01T15:36:02.042Z,7.40
2023-03-01T15:38:31.236Z,8.23
2023-03-01T15:40:59.436Z,7.60
2023-03-01T15:43:43.620Z,7.15
2023-03-01T15:46:19.151Z,8.00
2023-03-01T15:48:48.059Z,7.95
2023-03-01T15:51:15.960Z,7.80
2023-03-01T15:53:54.291Z,8.35
2023-03-01T15:56:21.884Z,8.82
2023-03-01T15:58:48.542Z,8.93
2023-03-01T16:01:20.204Z,8.30
2023-03-01T16:03:46.754Z,8.15
2023-03-01T16:06:13.648Z,9.52
2023-03-01T16:08:41.116Z,9.48
2023-03-01T16:11:14.921Z,8.30
2023-03-01T16:13:41.530Z,7.30
2023-03-01T16:16:13.524Z,9.52
2023-03-01T16:18:40.311Z,8.35
2023-03-01T16:21:07.247Z,8.73
2023-03-01T16:23:33.829Z,7.95
2023-03-01T16:26:01.454Z,8.07
2023-03-01T16:28:29.361Z,8.02
2023-03-01T16:30:57.258Z,8.75
2023-03-01T16:33:32.455Z,8.50
2023-03-01T16:36:03.175Z,7.47
2023-03-01T16:38:31.964Z,9.15
2023-03-01T16:40:58.500Z,9.45
2023-03-01T16:43:25.090Z,8.82
2023-03-01T16:45:52.193Z,8.88
2023-03-01T16:48:18.829Z,9.15
2023-03-01T16:50:45.418Z,9.30
2023-03-01T16:53:12.236Z,8.40
2023-03-01T16:55:39.015Z,8.70
2023-03-01T16:58:06.732Z,7.68
2023-03-01T17:00:33.346Z,9.30
2023-03-01T17:02:59.918Z,8.85
2023-03-01T17:05:26.917Z,9.13
2023-03-01T17:07:56.582Z,9.00
2023-03-01T17:10:23.125Z,8.55
2023-03-01T17:12:51.010Z,11.38
2023-03-01T17:15:17.969Z,9.90
2023-03-01T17:17:44.660Z,8.98
2023-03-01T17:20:11.704Z,9.82
2023-03-01T17:22:38.288Z,10.00
2023-03-01T17:25:05.275Z,9.10
2023-03-01T17:27:35.504Z,8.70
2023-03-01T17:30:02.495Z,9.55
2023-03-01T17:32:29.162Z,9.18
2023-03-01T17:34:55.834Z,9.68
2023-03-01T17:37:22.696Z,10.77
2023-03-01T17:39:49.285Z,10.23
2023-03-01T17:42:15.924Z,9.15
2023-03-01T17:44:43.788Z,11.82
2023-03-01T17:47:11.180Z,10.05
2023-03-01T17:49:37.722Z,10.77
2023-03-01T17:52:04.315Z,10.55
2023-03-01T17:54:33.347Z,9.48
2023-03-01T17:57:00.389Z,9.30
2023-03-01T17:59:31.311Z,9.38
2023-03-01T18:01:58.485Z,10.30
2023-03-01T18:04:25.263Z,9.18
2023-03-01T18:06:51.758Z,10.15
2023-03-01T18:09:18.391Z,9.15
2023-03-01T18:11:46.876Z,14.48
2023-03-01T18:14:14.499Z,11.02
2023-03-01T18:16:41.103Z,9.73
2023-03-01T18:19:07.697Z,8.77
2023-03-01T18:21:34.516Z,10.65
2023-03-01T18:24:01.622Z,10.52
2023-03-01T18:26:29.702Z,8.43
2023-03-01T18:28:58.379Z,9.00
2023-03-01T18:31:25.786Z,8.43
2023-03-01T18:33:57.362Z,9.70
2023-03-01T18:36:27.985Z,10.02
2023-03-01T18:38:56.364Z,9.07
2023-03-01T18:41:25.315Z,10.35
2023-03-01T18:43:52.211Z,11.00
2023-03-01T18:46:20.237Z,8.75
2023-03-01T18:48:48.076Z,10.32
2023-03-01T18:51:17.537Z,10.68
2023-03-01T18:53:44.878Z,11.05
2023-03-01T18:56:12.169Z,9.70
2023-03-01T18:58:39.206Z,10.52
2023-03-01T19:01:12.409Z,9.90
2023-03-01T19:03:38.901Z,9.00
2023-03-01T19:06:05.538Z,11.48
2023-03-01T19:08:32.448Z,10.00
2023-03-01T19:11:01.833Z,9.50
2023-03-01T19:13:28.659Z,9.68
2023-03-01T19:16:07.309Z,10.05
2023-03-01T19:18:34.901Z,9.70
2023-03-01T19:21:04.530Z,9.82
2023-03-01T19:23:34.919Z,10.00
2023-03-01T19:26:03.328Z,10.60
2023-03-01T19:28:30.216Z,10.15
2023-03-01T19:31:05.604Z,9.45
2023-03-01T19:33:34.298Z,11.05
2023-03-01T19:36:01.654Z,10.38
2023-03-01T19:38:28.706Z,10.70
2023-03-01T19:40:56.009Z,9.75
2023-03-01T19:43:23.311Z,11.15
2023-03-01T19:45:54.926Z,12.73
2023-03-01T19:48:22.424Z,11.35
2023-03-01T19:50:51.069Z,12.00
2023-03-01T19:53:17.695Z,11.60
2023-03-01T19:55:44.306Z,10.93
2023-03-01T19:58:14.116Z,10.40
2023-03-01T20:00:45.469Z,9.82
2023-03-01T20:03:12.310Z,9.98
2023-03-01T20:05:39.574Z,9.57
2023-03-01T20:08:06.450Z,10.65
2023-03-01T20:10:34.376Z,10.35
2023-03-01T20:13:02.606Z,10.07
2023-03-01T20:15:29.371Z,10.70
2023-03-01T20:17:55.868Z,9.68
2023-03-01T20:20:22.520Z,10.90
2023-03-01T20:22:48.996Z,10.45
2023-03-01T20:25:15.574Z,10.43
2023-03-01T20:27:42.263Z,10.00
2023-03-01T20:30:09.547Z,11.77
2023-03-01T20:32:36.105Z,11.25
2023-03-01T20:35:03.284Z,12.23
2023-03-01T20:37:29.857Z,11.52
2023-03-01T20:39:56.393Z,11.15
2023-03-01T20:42:22.904Z,12.18
2023-03-01T20:44:49.747Z,12.02
2023-03-01T20:47:16.264Z,12.27
2023-03-01T20:49:42.793Z,11.77
2023-03-01T20:52:09.290Z,11.13
2023-03-01T20:54:36.292Z,12.50
2023-03-01T20:57:02.850Z,11.82
2023-03-01T20:59:29.367Z,13.48
2023-03-01T21:01:55.922Z,13.63
2023-03-01T21:04:22.489Z,15.25
2023-03-01T21:06:49.103Z,14.20
2023-03-01T21:09:15.770Z,13.23
2023-03-01T21:11:42.372Z,12.15
2023-03-01T21:14:09.627Z,12.82
2023-03-01T21:16:36.643Z,12.23
2023-03-01T21:19:06.520Z,13.45
2023-03-01T21:21:33.271Z,13.52
2023-03-01T21:23:59.815Z,16.83
2023-03-01T21:26:27.865Z,14.43
2023-03-01T21:29:03.227Z,13.27
2023-03-01T21:31:35.181Z,13.70
2023-03-01T21:34:05.196Z,17.17
2023-03-01T21:36:33.349Z,12.93
2023-03-01T21:39:02.122Z,15.43
2023-03-01T21:41:32.105Z,13.45
2023-03-01T21:44:01.059Z,14.10
2023-03-01T21:46:30.900Z,13.93
2023-03-01T21:51:26.848Z,16.80
2023-03-01T21:53:55.812Z,14.05
2023-03-01T21:56:25.475Z,14.18
2023-03-01T21:58:52.443Z,14.68
2023-03-01T22:01:25.399Z,15.63
2023-03-01T22:03:52.038Z,14.20
2023-03-01T22:06:22.812Z,18.33
2023-03-01T22:08:56.117Z,14.93
2023-03-01T22:11:24.082Z,13.80
2023-03-01T22:13:52.466Z,13.27
2023-03-01T22:16:25.866Z,14.05
2023-03-01T22:18:52.730Z,14.00
2023-03-01T22:21:20.512Z,17.33
2023-03-01T22:23:47.053Z,14.30
2023-03-01T22:26:28.579Z,15.45
2023-03-01T22:28:57.471Z,16.23
2023-03-01T22:31:25.190Z,15.43
2023-03-01T22:33:51.941Z,14.75
2023-03-01T22:36:18.680Z,16.30
2023-03-01T22:38:45.739Z,17.98
2023-03-01T22:41:12.515Z,14.55
2023-03-01T22:43:39.116Z,17.80
2023-03-01T22:46:19.311Z,15.82
2023-03-01T22:48:47.443Z,19.98
2023-03-01T22:51:16.457Z,16.13
2023-03-01T22:53:43.474Z,18.88
2023-03-01T22:56:11.816Z,16.95
2023-03-01T22:58:38.591Z,17.83
2023-03-01T23:01:17.970Z,21.10
2023-03-01T23:03:45.123Z,16.05
2023-03-01T23:06:12.340Z,17.77
2023-03-01T23:08:39.054Z,19.95
2023-03-01T23:11:11.858Z,18.05
2023-03-01T23:13:38.674Z,20.73
2023-03-01T23:16:05.638Z,16.73
2023-03-01T23:18:32.268Z,20.58
2023-03-01T23:20:59.106Z,16.92
2023-03-01T23:23:25.924Z,20.80
2023-03-01T23:25:57.228Z,17.83
2023-03-01T23:28:25.155Z,19.35
2023-03-01T23:31:00.331Z,19.67
2023-03-01T23:33:37.716Z,15.70
2023-03-01T23:36:15.941Z,20.20
2023-03-01T23:38:42.924Z,18.65
2023-03-01T23:41:13.510Z,16.70
2023-03-01T23:43:40.327Z,18.13
2023-03-01T23:46:06.919Z,16.10
2023-03-01T23:48:33.515Z,19.35
2023-03-01T23:51:06.211Z,18.60
2023-03-01T23:53:36.010Z,16.88
2023-03-01T23:56:02.927Z,16.20
2023-03-01T23:58:29.761Z,19.75
